NH62 weather

Public forecast

Using degrees Fahrenheit for public forecast. Weather courtesy of forecast.io.

Closest aviation weather report (METAR) to Millipore Heliport

Closest report is Jaffrey Airport Silver Ranch Airport, 1.0 nm (1.8 km) WNW. Retrieved 2020/08/12 17:52 UTC (21 minutes ago):

KAFN 121752Z AUTO 29006KT 10SM SCT043 29/17 A3006 RMK AO2 SLP176 T02940172 10300 20233 58002

Closest aviation forecast (TAF) to Millipore Heliport

Closest forecast is Manchester-Boston Regional Airport, 25.4 nm (47.0 km) ENE. Retrieved 2020/08/12 18:21 UTC (0 seconds ago):

TAF KMHT 121720Z 1218/1318 30006KT P6SM SCT050 SCT250